sensor_id;sensor_type;location;lat;lon;timestamp;pressure;altitude;pressure_sealevel;temperature;humidity
50356;BME280;36264;51.296;-0.602;2022-10-16T00:01:26;100371.25;;;11.29;94.06
50356;BME280;36264;51.296;-0.602;2022-10-16T00:03:52;100369.63;;;11.27;94.34
50356;BME280;36264;51.296;-0.602;2022-10-16T00:06:19;100364.63;;;11.22;94.21
50356;BME280;36264;51.296;-0.602;2022-10-16T00:08:45;100362.31;;;11.14;94.51
50356;BME280;36264;51.296;-0.602;2022-10-16T00:11:17;100356.63;;;11.04;94.50
50356;BME280;36264;51.296;-0.602;2022-10-16T00:13:46;100368.03;;;11.00;94.39
50356;BME280;36264;51.296;-0.602;2022-10-16T00:16:12;100367.56;;;10.91;94.55
50356;BME280;36264;51.296;-0.602;2022-10-16T00:18:38;100368.81;;;10.80;94.51
50356;BME280;36264;51.296;-0.602;2022-10-16T00:21:07;100370.06;;;10.70;95.05
50356;BME280;36264;51.296;-0.602;2022-10-16T00:23:33;100378.13;;;10.62;95.07
50356;BME280;36264;51.296;-0.602;2022-10-16T00:26:01;100373.16;;;10.56;95.13
50356;BME280;36264;51.296;-0.602;2022-10-16T00:28:27;100375.25;;;10.46;95.52
50356;BME280;36264;51.296;-0.602;2022-10-16T00:30:53;100388.13;;;10.49;95.66
50356;BME280;36264;51.296;-0.602;2022-10-16T00:33:19;100385.69;;;10.45;95.87
50356;BME280;36264;51.296;-0.602;2022-10-16T00:35:45;100383.06;;;10.46;96.07
50356;BME280;36264;51.296;-0.602;2022-10-16T00:38:10;100384.59;;;10.52;96.27
50356;BME280;36264;51.296;-0.602;2022-10-16T00:40:36;100384.47;;;10.55;95.58
50356;BME280;36264;51.296;-0.602;2022-10-16T00:43:02;100378.41;;;10.55;95.54
50356;BME280;36264;51.296;-0.602;2022-10-16T00:45:29;100383.00;;;10.48;95.22
50356;BME280;36264;51.296;-0.602;2022-10-16T00:47:55;100383.22;;;10.42;95.61
50356;BME280;36264;51.296;-0.602;2022-10-16T00:50:33;100386.84;;;10.38;95.49
50356;BME280;36264;51.296;-0.602;2022-10-16T00:53:00;100382.59;;;10.35;95.45
50356;BME280;36264;51.296;-0.602;2022-10-16T00:55:28;100382.84;;;10.27;95.21
50356;BME280;36264;51.296;-0.602;2022-10-16T00:57:56;100391.00;;;10.16;95.80
50356;BME280;36264;51.296;-0.602;2022-10-16T01:00:25;100387.63;;;10.14;95.90
50356;BME280;36264;51.296;-0.602;2022-10-16T01:02:56;100394.72;;;10.09;95.78
50356;BME280;36264;51.296;-0.602;2022-10-16T01:05:23;100398.25;;;10.07;96.01
50356;BME280;36264;51.296;-0.602;2022-10-16T01:07:56;100390.53;;;10.05;95.82
50356;BME280;36264;51.296;-0.602;2022-10-16T01:15:30;100401.25;;;9.96;96.30
50356;BME280;36264;51.296;-0.602;2022-10-16T01:18:08;100402.13;;;9.95;96.32
50356;BME280;36264;51.296;-0.602;2022-10-16T01:28:38;100419.13;;;10.04;98.25
50356;BME280;36264;51.296;-0.602;2022-10-16T01:31:04;100418.81;;;10.13;98.95
50356;BME280;36264;51.296;-0.602;2022-10-16T01:33:37;100408.06;;;10.24;99.78
50356;BME280;36264;51.296;-0.602;2022-10-16T01:36:10;100413.81;;;10.33;99.69
50356;BME280;36264;51.296;-0.602;2022-10-16T01:38:39;100402.31;;;10.41;100.00
50356;BME280;36264;51.296;-0.602;2022-10-16T01:41:15;100415.88;;;10.49;100.00
50356;BME280;36264;51.296;-0.602;2022-10-16T01:43:48;100419.97;;;10.55;100.00
50356;BME280;36264;51.296;-0.602;2022-10-16T01:46:18;100414.66;;;10.58;99.57
50356;BME280;36264;51.296;-0.602;2022-10-16T01:48:44;100414.56;;;10.61;100.00
50356;BME280;36264;51.296;-0.602;2022-10-16T01:51:12;100420.72;;;10.58;99.74
50356;BME280;36264;51.296;-0.602;2022-10-16T01:53:39;100412.94;;;10.58;99.08
50356;BME280;36264;51.296;-0.602;2022-10-16T01:56:09;100408.59;;;10.59;99.70
50356;BME280;36264;51.296;-0.602;2022-10-16T01:58:38;100412.13;;;10.56;100.00
50356;BME280;36264;51.296;-0.602;2022-10-16T02:01:08;100420.72;;;10.58;99.41
50356;BME280;36264;51.296;-0.602;2022-10-16T02:03:37;100415.66;;;10.55;99.30
50356;BME280;36264;51.296;-0.602;2022-10-16T02:06:06;100408.97;;;10.48;100.00
50356;BME280;36264;51.296;-0.602;2022-10-16T02:08:32;100408.91;;;10.49;99.39
50356;BME280;36264;51.296;-0.602;2022-10-16T02:11:00;100415.88;;;10.49;99.50
50356;BME280;36264;51.296;-0.602;2022-10-16T02:13:31;100420.16;;;10.50;99.30
50356;BME280;36264;51.296;-0.602;2022-10-16T02:15:58;100421.06;;;10.49;98.73
50356;BME280;36264;51.296;-0.602;2022-10-16T02:18:23;100429.63;;;10.51;98.58
50356;BME280;36264;51.296;-0.602;2022-10-16T02:21:05;100434.81;;;10.51;98.04
50356;BME280;36264;51.296;-0.602;2022-10-16T02:23:45;100434.88;;;10.49;98.38
50356;BME280;36264;51.296;-0.602;2022-10-16T02:26:16;100440.13;;;10.48;97.85
50356;BME280;36264;51.296;-0.602;2022-10-16T02:28:48;100440.06;;;10.49;97.74
50356;BME280;36264;51.296;-0.602;2022-10-16T02:31:23;100453.91;;;10.50;97.48
50356;BME280;36264;51.296;-0.602;2022-10-16T02:33:51;100452.25;;;10.47;97.18
50356;BME280;36264;51.296;-0.602;2022-10-16T02:36:18;100456.56;;;10.48;97.29
50356;BME280;36264;51.296;-0.602;2022-10-16T02:38:43;100454.88;;;10.47;97.24
50356;BME280;36264;51.296;-0.602;2022-10-16T02:41:10;100452.31;;;10.46;97.05
50356;BME280;36264;51.296;-0.602;2022-10-16T02:43:35;100453.16;;;10.46;96.91
50356;BME280;36264;51.296;-0.602;2022-10-16T02:46:01;100455.84;;;10.43;97.14
50356;BME280;36264;51.296;-0.602;2022-10-16T02:48:26;100465.34;;;10.44;97.15
50356;BME280;36264;51.296;-0.602;2022-10-16T02:50:51;100462.75;;;10.44;97.08
50356;BME280;36264;51.296;-0.602;2022-10-16T02:53:17;100467.13;;;10.44;96.97
50356;BME280;36264;51.296;-0.602;2022-10-16T02:55:42;100469.75;;;10.42;97.13
50356;BME280;36264;51.296;-0.602;2022-10-16T02:58:08;100474.09;;;10.42;97.10
50356;BME280;36264;51.296;-0.602;2022-10-16T03:00:33;100476.72;;;10.40;97.08
50356;BME280;36264;51.296;-0.602;2022-10-16T03:02:58;100480.19;;;10.41;96.94
50356;BME280;36264;51.296;-0.602;2022-10-16T03:05:24;100474.13;;;10.40;97.11
50356;BME280;36264;51.296;-0.602;2022-10-16T03:07:49;100468.22;;;10.37;97.08
50356;BME280;36264;51.296;-0.602;2022-10-16T03:10:15;100476.06;;;10.35;97.41
50356;BME280;36264;51.296;-0.602;2022-10-16T03:12:40;100473.50;;;10.33;97.66
50356;BME280;36264;51.296;-0.602;2022-10-16T03:15:06;100479.63;;;10.31;97.57
50356;BME280;36264;51.296;-0.602;2022-10-16T03:17:32;100493.56;;;10.28;97.97
50356;BME280;36264;51.296;-0.602;2022-10-16T03:19:57;100490.97;;;10.28;97.76
50356;BME280;36264;51.296;-0.602;2022-10-16T03:22:23;100498.69;;;10.30;97.43
50356;BME280;36264;51.296;-0.602;2022-10-16T03:24:48;100497.03;;;10.27;97.72
50356;BME280;36264;51.296;-0.602;2022-10-16T03:27:13;100497.97;;;10.26;97.85
50356;BME280;36264;51.296;-0.602;2022-10-16T03:29:39;100498.91;;;10.24;97.74
50356;BME280;36264;51.296;-0.602;2022-10-16T03:32:04;100503.25;;;10.23;97.78
50356;BME280;36264;51.296;-0.602;2022-10-16T03:34:30;100500.00;;;10.16;97.98
50356;BME280;36264;51.296;-0.602;2022-10-16T03:36:55;100499.16;;;10.16;97.86
50356;BME280;36264;51.296;-0.602;2022-10-16T03:39:20;100506.06;;;10.17;98.00
50356;BME280;36264;51.296;-0.602;2022-10-16T03:41:46;100500.97;;;10.14;98.03
50356;BME280;36264;51.296;-0.602;2022-10-16T03:44:12;100510.47;;;10.15;98.31
50356;BME280;36264;51.296;-0.602;2022-10-16T03:46:37;100515.50;;;10.18;97.96
50356;BME280;36264;51.296;-0.602;2022-10-16T03:49:03;100523.31;;;10.18;97.61
50356;BME280;36264;51.296;-0.602;2022-10-16T03:51:28;100531.09;;;10.18;97.57
50356;BME280;36264;51.296;-0.602;2022-10-16T03:53:53;100521.63;;;10.17;97.24
50356;BME280;36264;51.296;-0.602;2022-10-16T03:56:19;100527.69;;;10.16;97.47
50356;BME280;36264;51.296;-0.602;2022-10-16T03:58:44;100532.94;;;10.14;97.98
50356;BME280;36264;51.296;-0.602;2022-10-16T04:01:09;100533.00;;;10.13;97.80
50356;BME280;36264;51.296;-0.602;2022-10-16T04:03:35;100542.53;;;10.12;97.92
50356;BME280;36264;51.296;-0.602;2022-10-16T04:06:00;100536.47;;;10.13;98.32
50356;BME280;36264;51.296;-0.602;2022-10-16T04:08:26;100545.09;;;10.14;98.46
50356;BME280;36264;51.296;-0.602;2022-10-16T04:10:51;100542.44;;;10.15;98.17
50356;BME280;36264;51.296;-0.602;2022-10-16T04:13:16;100539.88;;;10.14;97.97
50356;BME280;36264;51.296;-0.602;2022-10-16T04:15:44;100555.38;;;10.17;97.75
50356;BME280;36264;51.296;-0.602;2022-10-16T04:18:10;100553.66;;;10.16;97.90
50356;BME280;36264;51.296;-0.602;2022-10-16T04:20:35;100564.03;;;10.16;97.61
50356;BME280;36264;51.296;-0.602;2022-10-16T04:23:01;100558.06;;;10.14;97.29
50356;BME280;36264;51.296;-0.602;2022-10-16T04:25:26;100571.91;;;10.13;97.43
50356;BME280;36264;51.296;-0.602;2022-10-16T04:27:55;100555.56;;;10.11;97.47
50356;BME280;36264;51.296;-0.602;2022-10-16T04:30:22;100571.22;;;10.08;97.87
50356;BME280;36264;51.296;-0.602;2022-10-16T04:32:48;100578.31;;;10.03;97.77
50356;BME280;36264;51.296;-0.602;2022-10-16T04:35:15;100588.56;;;10.07;97.68
50356;BME280;36264;51.296;-0.602;2022-10-16T04:37:40;100591.94;;;10.09;97.17
50356;BME280;36264;51.296;-0.602;2022-10-16T04:40:06;100593.66;;;10.10;97.15
50356;BME280;36264;51.296;-0.602;2022-10-16T04:42:32;100599.69;;;10.11;97.00
50356;BME280;36264;51.296;-0.602;2022-10-16T04:44:57;100604.88;;;10.11;96.66
50356;BME280;36264;51.296;-0.602;2022-10-16T04:47:22;100610.16;;;10.08;96.36
50356;BME280;36264;51.296;-0.602;2022-10-16T04:49:48;100617.06;;;10.09;96.41
50356;BME280;36264;51.296;-0.602;2022-10-16T04:52:13;100630.88;;;10.09;96.32
50356;BME280;36264;51.296;-0.602;2022-10-16T04:54:38;100635.22;;;10.09;96.50
50356;BME280;36264;51.296;-0.602;2022-10-16T04:57:04;100643.06;;;10.07;96.47
50356;BME280;36264;51.296;-0.602;2022-10-16T04:59:30;100650.88;;;10.06;96.18
50356;BME280;36264;51.296;-0.602;2022-10-16T05:01:55;100661.22;;;10.07;96.07
50356;BME280;36264;51.296;-0.602;2022-10-16T05:04:20;100669.88;;;10.06;95.86
50356;BME280;36264;51.296;-0.602;2022-10-16T05:06:47;100674.16;;;10.09;95.85
50356;BME280;36264;51.296;-0.602;2022-10-16T05:09:13;100669.00;;;10.07;95.35
50356;BME280;36264;51.296;-0.602;2022-10-16T05:11:38;100672.44;;;10.08;95.09
50356;BME280;36264;51.296;-0.602;2022-10-16T05:14:03;100673.22;;;10.10;95.20
50356;BME280;36264;51.296;-0.602;2022-10-16T05:16:29;100681.94;;;10.09;94.79
50356;BME280;36264;51.296;-0.602;2022-10-16T05:18:55;100682.78;;;10.09;95.10
50356;BME280;36264;51.296;-0.602;2022-10-16T05:21:21;100686.25;;;10.08;95.26
50356;BME280;36264;51.296;-0.602;2022-10-16T05:23:47;100695.78;;;10.08;95.11
50356;BME280;36264;51.296;-0.602;2022-10-16T05:26:12;100696.72;;;10.05;95.29
50356;BME280;36264;51.296;-0.602;2022-10-16T05:28:38;100695.19;;;10.00;95.21
50356;BME280;36264;51.296;-0.602;2022-10-16T05:31:07;100705.81;;;9.90;94.94
50356;BME280;36264;51.296;-0.602;2022-10-16T05:33:33;100702.69;;;9.79;95.44
50356;BME280;36264;51.296;-0.602;2022-10-16T05:36:06;100695.06;;;9.73;95.65
50356;BME280;36264;51.296;-0.602;2022-10-16T05:38:33;100703.81;;;9.69;95.86
50356;BME280;36264;51.296;-0.602;2022-10-16T05:40:58;100709.09;;;9.66;95.80
50356;BME280;36264;51.296;-0.602;2022-10-16T05:43:24;100715.34;;;9.58;95.52
50356;BME280;36264;51.296;-0.602;2022-10-16T05:46:03;100719.00;;;9.51;95.95
50356;BME280;36264;51.296;-0.602;2022-10-16T05:48:29;100718.31;;;9.45;96.01
50356;BME280;36264;51.296;-0.602;2022-10-16T05:51:04;100728.81;;;9.40;95.99
50356;BME280;36264;51.296;-0.602;2022-10-16T05:53:32;100729.75;;;9.37;96.41
50356;BME280;36264;51.296;-0.602;2022-10-16T05:55:58;100728.84;;;9.38;95.96
50356;BME280;36264;51.296;-0.602;2022-10-16T05:58:23;100734.16;;;9.34;95.68
50356;BME280;36264;51.296;-0.602;2022-10-16T06:01:00;100738.59;;;9.29;95.63
50356;BME280;36264;51.296;-0.602;2022-10-16T06:03:25;100743.06;;;9.23;96.25
50356;BME280;36264;51.296;-0.602;2022-10-16T06:05:51;100752.75;;;9.17;96.03
50356;BME280;36264;51.296;-0.602;2022-10-16T06:08:18;100752.09;;;9.07;95.95
50356;BME280;36264;51.296;-0.602;2022-10-16T06:10:44;100764.50;;;8.94;96.08
50356;BME280;36264;51.296;-0.602;2022-10-16T06:13:11;100761.38;;;8.80;96.12
50356;BME280;36264;51.296;-0.602;2022-10-16T06:15:37;100764.19;;;8.70;96.56
50356;BME280;36264;51.296;-0.602;2022-10-16T06:18:04;100769.53;;;8.64;97.19
50356;BME280;36264;51.296;-0.602;2022-10-16T06:20:29;100767.81;;;8.63;97.24
50356;BME280;36264;51.296;-0.602;2022-10-16T06:22:55;100768.78;;;8.58;96.82
50356;BME280;36264;51.296;-0.602;2022-10-16T06:25:20;100767.31;;;8.47;96.87
50356;BME280;36264;51.296;-0.602;2022-10-16T06:27:46;100771.69;;;8.44;97.14
50356;BME280;36264;51.296;-0.602;2022-10-16T06:30:11;100771.94;;;8.31;96.81
50356;BME280;36264;51.296;-0.602;2022-10-16T06:32:36;100778.16;;;8.21;97.17
50356;BME280;36264;51.296;-0.602;2022-10-16T06:35:02;100781.88;;;8.09;97.10
50356;BME280;36264;51.296;-0.602;2022-10-16T06:37:27;100781.22;;;7.98;97.27
50356;BME280;36264;51.296;-0.602;2022-10-16T06:39:52;100793.34;;;7.94;98.09
50356;BME280;36264;51.296;-0.602;2022-10-16T06:42:18;100787.31;;;7.95;98.49
50356;BME280;36264;51.296;-0.602;2022-10-16T06:44:44;100784.66;;;7.98;98.25
50356;BME280;36264;51.296;-0.602;2022-10-16T06:47:10;100782.88;;;8.01;97.79
50356;BME280;36264;51.296;-0.602;2022-10-16T06:49:36;100782.97;;;7.96;97.73
50356;BME280;36264;51.296;-0.602;2022-10-16T06:52:01;100790.75;;;7.94;97.77
50356;BME280;36264;51.296;-0.602;2022-10-16T06:54:27;100791.69;;;7.92;97.59
50356;BME280;36264;51.296;-0.602;2022-10-16T06:56:53;100785.75;;;7.88;97.33
50356;BME280;36264;51.296;-0.602;2022-10-16T06:59:20;100795.28;;;7.83;97.20
50356;BME280;36264;51.296;-0.602;2022-10-16T07:01:45;100799.56;;;7.86;97.57
50356;BME280;36264;51.296;-0.602;2022-10-16T07:04:11;100802.13;;;7.87;97.63
50356;BME280;36264;51.296;-0.602;2022-10-16T07:06:36;100815.88;;;7.89;97.86
50356;BME280;36264;51.296;-0.602;2022-10-16T07:09:04;100820.16;;;7.92;97.53
50356;BME280;36264;51.296;-0.602;2022-10-16T07:11:30;100827.00;;;7.93;97.32
50356;BME280;36264;51.296;-0.602;2022-10-16T07:13:56;100826.25;;;7.88;97.41
50356;BME280;36264;51.296;-0.602;2022-10-16T07:16:24;100837.34;;;7.93;97.34
50356;BME280;36264;51.296;-0.602;2022-10-16T07:18:49;100846.72;;;8.00;97.33
50356;BME280;36264;51.296;-0.602;2022-10-16T07:21:19;100841.53;;;8.00;97.15
50356;BME280;36264;51.296;-0.602;2022-10-16T07:23:49;100846.69;;;8.02;97.10
50356;BME280;36264;51.296;-0.602;2022-10-16T07:26:15;100848.44;;;8.01;96.85
50356;BME280;36264;51.296;-0.602;2022-10-16T07:28:42;100851.00;;;8.01;96.95
50356;BME280;36264;51.296;-0.602;2022-10-16T07:31:11;100854.47;;;8.00;96.89
50356;BME280;36264;51.296;-0.602;2022-10-16T07:33:38;100857.94;;;7.99;97.06
50356;BME280;36264;51.296;-0.602;2022-10-16T07:36:04;100864.88;;;7.97;97.05
50356;BME280;36264;51.296;-0.602;2022-10-16T07:38:29;100867.47;;;7.95;97.08
50356;BME280;36264;51.296;-0.602;2022-10-16T07:40:58;100865.88;;;7.90;97.58
50356;BME280;36264;51.296;-0.602;2022-10-16T07:43:25;100873.53;;;7.94;97.38
50356;BME280;36264;51.296;-0.602;2022-10-16T07:45:51;100865.81;;;7.91;97.49
50356;BME280;36264;51.296;-0.602;2022-10-16T07:48:17;100882.97;;;7.97;97.56
50356;BME280;36264;51.296;-0.602;2022-10-16T07:50:43;100877.78;;;7.98;97.65
50356;BME280;36264;51.296;-0.602;2022-10-16T07:53:09;100881.16;;;8.02;97.72
50356;BME280;36264;51.296;-0.602;2022-10-16T07:55:35;100883.72;;;8.04;97.67
50356;BME280;36264;51.296;-0.602;2022-10-16T07:58:00;100896.53;;;8.10;97.70
50356;BME280;36264;51.296;-0.602;2022-10-16T08:00:26;100886.19;;;8.10;97.86
50356;BME280;36264;51.296;-0.602;2022-10-16T08:02:51;100888.75;;;8.11;98.24
50356;BME280;36264;51.296;-0.602;2022-10-16T08:05:17;100886.06;;;8.16;98.37
50356;BME280;36264;51.296;-0.602;2022-10-16T08:07:42;100895.44;;;8.23;98.64
50356;BME280;36264;51.296;-0.602;2022-10-16T08:10:16;100895.28;;;8.31;98.55
50356;BME280;36264;51.296;-0.602;2022-10-16T08:12:42;100900.28;;;8.40;98.62
50356;BME280;36264;51.296;-0.602;2022-10-16T08:15:08;100901.00;;;8.48;98.47
50356;BME280;36264;51.296;-0.602;2022-10-16T08:17:33;100905.16;;;8.57;98.32
50356;BME280;36264;51.296;-0.602;2022-10-16T08:19:59;100908.44;;;8.65;97.99
50356;BME280;36264;51.296;-0.602;2022-10-16T08:22:24;100899.88;;;8.62;98.13
50356;BME280;36264;51.296;-0.602;2022-10-16T08:24:49;100919.41;;;8.78;98.63
50356;BME280;36264;51.296;-0.602;2022-10-16T08:27:15;100927.84;;;8.86;98.49
50356;BME280;36264;51.296;-0.602;2022-10-16T08:29:40;100923.50;;;8.88;98.29
50356;BME280;36264;51.296;-0.602;2022-10-16T08:32:06;100925.84;;;9.01;98.41
50356;BME280;36264;51.296;-0.602;2022-10-16T08:34:31;100929.16;;;9.07;98.26
50356;BME280;36264;51.296;-0.602;2022-10-16T08:36:56;100931.53;;;9.17;98.41
50356;BME280;36264;51.296;-0.602;2022-10-16T08:39:22;100928.72;;;9.26;98.87
50356;BME280;36264;51.296;-0.602;2022-10-16T08:50:26;100946.03;;;9.63;98.65
50356;BME280;36264;51.296;-0.602;2022-10-16T08:52:56;100952.63;;;9.76;99.25
50356;BME280;36264;51.296;-0.602;2022-10-16T08:55:52;100952.97;;;9.97;99.10
50356;BME280;36264;51.296;-0.602;2022-10-16T08:58:20;100953.44;;;10.13;97.96
50356;BME280;36264;51.296;-0.602;2022-10-16T09:00:48;100950.59;;;10.22;97.15
50356;BME280;36264;51.296;-0.602;2022-10-16T09:05:57;100963.88;;;10.46;97.17
50356;BME280;36264;51.296;-0.602;2022-10-16T09:17:30;100972.22;;;10.88;95.06
50356;BME280;36264;51.296;-0.602;2022-10-16T09:20:22;100964.94;;;11.00;94.78
50356;BME280;36264;51.296;-0.602;2022-10-16T09:23:00;100965.66;;;11.05;94.79
50356;BME280;36264;51.296;-0.602;2022-10-16T09:25:33;100971.56;;;11.10;95.12
50356;BME280;36264;51.296;-0.602;2022-10-16T09:28:00;100964.47;;;11.17;94.64
50356;BME280;36264;51.296;-0.602;2022-10-16T09:30:27;100962.38;;;11.28;93.88
50356;BME280;36264;51.296;-0.602;2022-10-16T09:32:54;100960.38;;;11.36;94.15
50356;BME280;36264;51.296;-0.602;2022-10-16T09:35:43;100967.91;;;11.46;93.25
50356;BME280;36264;51.296;-0.602;2022-10-16T09:38:07;100961.66;;;11.51;92.39
50356;BME280;36264;51.296;-0.602;2022-10-16T09:40:36;100966.66;;;11.57;92.29
50356;BME280;36264;51.296;-0.602;2022-10-16T09:43:22;100978.69;;;11.62;92.03
50356;BME280;36264;51.296;-0.602;2022-10-16T09:46:04;100980.34;;;11.64;91.47
50356;BME280;36264;51.296;-0.602;2022-10-16T09:48:37;100983.09;;;11.59;87.68
50356;BME280;36264;51.296;-0.602;2022-10-16T09:51:05;100984.69;;;11.64;91.51
50356;BME280;36264;51.296;-0.602;2022-10-16T09:53:45;100991.66;;;11.63;93.05
50356;BME280;36264;51.296;-0.602;2022-10-16T09:56:20;100994.34;;;11.60;93.84
50356;BME280;36264;51.296;-0.602;2022-10-16T09:58:50;100993.59;;;11.56;94.21
50356;BME280;36264;51.296;-0.602;2022-10-16T10:01:16;100996.28;;;11.53;94.94
50356;BME280;36264;51.296;-0.602;2022-10-16T10:03:43;101007.44;;;11.57;95.04
50356;BME280;36264;51.296;-0.602;2022-10-16T10:06:21;101016.97;;;11.58;95.59
50356;BME280;36264;51.296;-0.602;2022-10-16T10:16:45;101000.25;;;11.65;95.55
50356;BME280;36264;51.296;-0.602;2022-10-16T10:19:22;101006.25;;;11.67;94.98
50356;BME280;36264;51.296;-0.602;2022-10-16T10:21:49;100999.25;;;11.69;95.47
50356;BME280;36264;51.296;-0.602;2022-10-16T10:24:16;101004.41;;;11.71;95.63
50356;BME280;36264;51.296;-0.602;2022-10-16T10:27:09;101002.66;;;11.71;96.20
50356;BME280;36264;51.296;-0.602;2022-10-16T10:29:56;101001.81;;;11.71;96.66
50356;BME280;36264;51.296;-0.602;2022-10-16T10:32:42;101004.38;;;11.72;97.33
50356;BME280;36264;51.296;-0.602;2022-10-16T10:46:03;100996.91;;;12.17;95.36
50356;BME280;36264;51.296;-0.602;2022-10-16T10:51:01;100997.28;;;12.31;93.37
50356;BME280;36264;51.296;-0.602;2022-10-16T10:54:02;100984.78;;;12.41;92.46
50356;BME280;36264;51.296;-0.602;2022-10-16T11:09:47;100991.56;;;12.70;91.49
50356;BME280;36264;51.296;-0.602;2022-10-16T11:12:21;100988.00;;;12.73;91.96
50356;BME280;36264;51.296;-0.602;2022-10-16T11:14:51;100985.34;;;12.74;91.51
50356;BME280;36264;51.296;-0.602;2022-10-16T11:17:24;100985.22;;;12.77;91.83
50356;BME280;36264;51.296;-0.602;2022-10-16T11:19:58;100982.56;;;12.79;92.21
50356;BME280;36264;51.296;-0.602;2022-10-16T11:24:58;100972.88;;;12.82;89.87
50356;BME280;36264;51.296;-0.602;2022-10-16T11:27:37;100965.06;;;12.82;87.97
50356;BME280;36264;51.296;-0.602;2022-10-16T11:30:06;100969.19;;;12.88;87.43
50356;BME280;36264;51.296;-0.602;2022-10-16T11:33:03;100977.75;;;12.92;87.07
50356;BME280;36264;51.296;-0.602;2022-10-16T11:35:55;100981.13;;;12.94;89.27
50356;BME280;36264;51.296;-0.602;2022-10-16T11:41:03;100980.03;;;13.01;89.21
50356;BME280;36264;51.296;-0.602;2022-10-16T11:43:37;100969.41;;;13.05;91.68
50356;BME280;36264;51.296;-0.602;2022-10-16T11:46:16;100976.25;;;13.08;92.44
50356;BME280;36264;51.296;-0.602;2022-10-16T11:48:48;100971.84;;;13.10;92.50
50356;BME280;36264;51.296;-0.602;2022-10-16T11:51:21;100965.66;;;13.13;92.95
50356;BME280;36264;51.296;-0.602;2022-10-16T11:54:04;100967.84;;;13.23;92.07
50356;BME280;36264;51.296;-0.602;2022-10-16T11:56:38;100947.09;;;13.20;92.03
50356;BME280;36264;51.296;-0.602;2022-10-16T11:59:17;100971.59;;;13.40;91.21
50356;BME280;36264;51.296;-0.602;2022-10-16T12:01:50;100967.00;;;13.47;90.92
50356;BME280;36264;51.296;-0.602;2022-10-16T12:04:33;100976.81;;;13.62;91.44
50356;BME280;36264;51.296;-0.602;2022-10-16T12:07:07;100973.00;;;13.71;90.76
50356;BME280;36264;51.296;-0.602;2022-10-16T12:09:37;100971.81;;;13.78;90.75
50356;BME280;36264;51.296;-0.602;2022-10-16T12:12:03;100969.63;;;13.89;90.17
50356;BME280;36264;51.296;-0.602;2022-10-16T12:20:00;100955.28;;;14.00;89.28
50356;BME280;36264;51.296;-0.602;2022-10-16T12:22:28;100954.31;;;14.02;89.92
50356;BME280;36264;51.296;-0.602;2022-10-16T12:24:55;100949.59;;;14.10;90.45
50356;BME280;36264;51.296;-0.602;2022-10-16T12:27:31;100940.63;;;14.16;90.23
50356;BME280;36264;51.296;-0.602;2022-10-16T12:29:59;100945.34;;;14.28;88.92
50356;BME280;36264;51.296;-0.602;2022-10-16T12:32:37;100944.09;;;14.37;88.51
50356;BME280;36264;51.296;-0.602;2022-10-16T12:35:06;100931.63;;;14.44;89.59
50356;BME280;36264;51.296;-0.602;2022-10-16T12:37:42;100932.03;;;14.54;90.55
50356;BME280;36264;51.296;-0.602;2022-10-16T12:40:23;100941.22;;;14.64;90.06
50356;BME280;36264;51.296;-0.602;2022-10-16T12:42:50;100934.78;;;14.71;87.20
50356;BME280;36264;51.296;-0.602;2022-10-16T12:47:57;100932.09;;;14.92;88.31
50356;BME280;36264;51.296;-0.602;2022-10-16T12:50:34;100940.50;;;14.98;87.47
50356;BME280;36264;51.296;-0.602;2022-10-16T12:53:02;100941.22;;;15.02;88.09
50356;BME280;36264;51.296;-0.602;2022-10-16T12:55:35;100926.94;;;15.09;87.08
50356;BME280;36264;51.296;-0.602;2022-10-16T12:58:24;100937.03;;;15.17;87.05
50356;BME280;36264;51.296;-0.602;2022-10-16T13:09:10;100944.78;;;15.37;85.74
50356;BME280;36264;51.296;-0.602;2022-10-16T13:14:52;100933.69;;;15.32;84.38
50356;BME280;36264;51.296;-0.602;2022-10-16T13:17:54;100941.69;;;15.29;83.81
50356;BME280;36264;51.296;-0.602;2022-10-16T13:20:31;100937.44;;;15.27;85.09
50356;BME280;36264;51.296;-0.602;2022-10-16T13:23:32;100940.13;;;15.25;84.13
50356;BME280;36264;51.296;-0.602;2022-10-16T13:26:21;100938.53;;;15.23;84.20
50356;BME280;36264;51.296;-0.602;2022-10-16T13:28:49;100931.66;;;15.20;85.58
50356;BME280;36264;51.296;-0.602;2022-10-16T13:31:19;100920.13;;;15.24;85.38
50356;BME280;36264;51.296;-0.602;2022-10-16T13:33:48;100921.88;;;15.24;84.70
50356;BME280;36264;51.296;-0.602;2022-10-16T13:36:23;100934.91;;;15.25;84.50
50356;BME280;36264;51.296;-0.602;2022-10-16T13:39:00;100930.38;;;15.29;85.17
50356;BME280;36264;51.296;-0.602;2022-10-16T13:41:28;100925.94;;;15.31;84.97
50356;BME280;36264;51.296;-0.602;2022-10-16T13:43:54;100919.81;;;15.30;84.48
50356;BME280;36264;51.296;-0.602;2022-10-16T13:46:23;100933.78;;;15.31;84.85
50356;BME280;36264;51.296;-0.602;2022-10-16T13:49:04;100924.97;;;15.32;82.16
50356;BME280;36264;51.296;-0.602;2022-10-16T13:51:31;100935.38;;;15.33;84.19
50356;BME280;36264;51.296;-0.602;2022-10-16T13:53:57;100916.91;;;15.36;83.69
50356;BME280;36264;51.296;-0.602;2022-10-16T13:56:26;100922.28;;;15.33;82.21
50356;BME280;36264;51.296;-0.602;2022-10-16T13:59:07;100922.16;;;15.36;82.77
50356;BME280;36264;51.296;-0.602;2022-10-16T14:01:47;100925.78;;;15.34;83.48
50356;BME280;36264;51.296;-0.602;2022-10-16T14:04:13;100929.16;;;15.36;84.16
50356;BME280;36264;51.296;-0.602;2022-10-16T14:06:45;100919.38;;;15.39;84.92
50356;BME280;36264;51.296;-0.602;2022-10-16T14:09:24;100919.47;;;15.38;82.15
50356;BME280;36264;51.296;-0.602;2022-10-16T14:12:02;100916.16;;;15.34;82.83
50356;BME280;36264;51.296;-0.602;2022-10-16T14:14:46;100907.53;;;15.32;83.29
50356;BME280;36264;51.296;-0.602;2022-10-16T14:17:19;100911.13;;;15.30;83.17
50356;BME280;36264;51.296;-0.602;2022-10-16T14:19:50;100908.44;;;15.31;84.13
50356;BME280;36264;51.296;-0.602;2022-10-16T14:22:33;100908.44;;;15.31;84.35
50356;BME280;36264;51.296;-0.602;2022-10-16T14:24:59;100916.06;;;15.36;85.33
50356;BME280;36264;51.296;-0.602;2022-10-16T14:27:33;100910.91;;;15.34;84.88